createdAt,value
2019-02-15T00:00:43.772Z,8.33
2019-02-15T00:03:11.997Z,8.33
2019-02-15T00:05:40.533Z,9.28
2019-02-15T00:08:08.755Z,8.70
2019-02-15T00:10:37.000Z,7.97
2019-02-15T00:13:13.053Z,8.55
2019-02-15T00:15:35.168Z,8.40
2019-02-15T00:18:08.337Z,8.80
2019-02-15T00:20:56.254Z,8.43
2019-02-15T00:23:24.473Z,8.75
2019-02-15T00:25:52.976Z,8.00
2019-02-15T00:28:21.204Z,9.25
2019-02-15T00:30:49.445Z,8.20
2019-02-15T00:33:17.683Z,8.80
2019-02-15T00:35:45.895Z,8.68
2019-02-15T00:38:14.124Z,8.50
2019-02-15T00:40:42.344Z,9.03
2019-02-15T00:43:10.599Z,8.85
2019-02-15T00:45:40.468Z,9.30
2019-02-15T00:48:13.025Z,8.28
2019-02-15T00:50:42.888Z,9.00
2019-02-15T00:53:12.753Z,8.78
2019-02-15T00:56:00.991Z,8.70
2019-02-15T00:58:36.435Z,8.68
2019-02-15T01:01:06.297Z,8.50
2019-02-15T01:03:47.996Z,8.65
2019-02-15T01:06:23.567Z,8.88
2019-02-15T01:08:56.144Z,8.55
2019-02-15T01:11:28.996Z,9.23
2019-02-15T01:13:57.215Z,8.08
2019-02-15T01:16:25.441Z,8.73
2019-02-15T01:18:53.686Z,8.65
2019-02-15T01:21:22.204Z,8.48
2019-02-15T01:23:50.452Z,8.23
2019-02-15T01:26:20.313Z,8.43
2019-02-15T01:28:53.280Z,8.13
2019-02-15T01:31:39.629Z,8.23
2019-02-15T01:34:09.483Z,9.08
2019-02-15T01:36:39.341Z,8.85
2019-02-15T01:39:14.645Z,8.45
2019-02-15T01:41:50.266Z,8.78
2019-02-15T01:44:26.054Z,7.90
2019-02-15T01:46:56.149Z,7.75
2019-02-15T01:49:24.366Z,8.47
2019-02-15T01:51:52.608Z,7.95
2019-02-15T01:54:20.834Z,8.53
2019-02-15T01:56:49.112Z,8.43
2019-02-15T01:59:17.346Z,8.48
2019-02-15T02:01:45.587Z,7.95
2019-02-15T02:04:13.865Z,7.60
2019-02-15T02:06:42.080Z,8.48
2019-02-15T02:09:10.417Z,8.23
2019-02-15T02:11:38.637Z,8.18
2019-02-15T02:14:06.892Z,7.60
2019-02-15T02:16:35.126Z,7.78
2019-02-15T02:19:03.481Z,7.95
2019-02-15T02:21:31.700Z,6.60
2019-02-15T02:23:59.928Z,6.92
2019-02-15T02:26:28.164Z,7.08
2019-02-15T02:28:56.412Z,7.58
2019-02-15T02:31:24.624Z,7.03
2019-02-15T02:33:52.852Z,6.85
2019-02-15T02:36:21.093Z,6.85
2019-02-15T02:38:49.331Z,6.85
2019-02-15T02:41:17.558Z,7.08
2019-02-15T02:43:45.783Z,7.42
2019-02-15T02:46:14.024Z,7.03
2019-02-15T02:48:42.260Z,6.80
2019-02-15T02:51:10.487Z,7.17
2019-02-15T02:53:38.709Z,6.80
2019-02-15T02:56:06.965Z,6.75
2019-02-15T02:58:35.192Z,7.40
2019-02-15T03:01:03.805Z,6.85
2019-02-15T03:03:32.353Z,7.17
2019-02-15T03:06:00.588Z,6.72
2019-02-15T03:08:28.844Z,6.62
2019-02-15T03:10:57.073Z,6.70
2019-02-15T03:13:25.288Z,6.62
2019-02-15T03:15:53.528Z,7.08
2019-02-15T03:18:21.758Z,6.62
2019-02-15T03:20:50.260Z,6.35
2019-02-15T03:23:18.486Z,6.58
2019-02-15T03:25:46.709Z,6.45
2019-02-15T03:28:15.003Z,6.92
2019-02-15T03:30:43.221Z,6.50
2019-02-15T03:33:11.701Z,6.67
2019-02-15T03:35:41.569Z,6.40
2019-02-15T03:38:11.458Z,6.55
2019-02-15T03:40:40.588Z,6.92
2019-02-15T03:43:08.836Z,8.10
2019-02-15T03:45:37.052Z,7.08
2019-02-15T03:48:05.521Z,7.28
2019-02-15T03:50:34.024Z,7.17
2019-02-15T03:53:02.253Z,7.08
2019-02-15T03:55:30.480Z,6.97
2019-02-15T03:57:58.698Z,6.15
2019-02-15T04:00:26.952Z,6.35
2019-02-15T04:02:55.176Z,6.05
2019-02-15T04:05:23.409Z,6.87
2019-02-15T04:07:51.633Z,6.08
2019-02-15T04:10:19.864Z,6.45
2019-02-15T04:12:48.104Z,6.42
2019-02-15T04:15:16.336Z,6.22
2019-02-15T04:17:44.553Z,6.00
2019-02-15T04:20:13.156Z,6.95
2019-02-15T04:22:41.680Z,7.03
2019-02-15T04:25:09.904Z,6.12
2019-02-15T04:27:38.120Z,6.30
2019-02-15T04:30:09.291Z,6.72
2019-02-15T04:32:37.520Z,6.65
2019-02-15T04:35:07.639Z,6.75
2019-02-15T04:37:35.858Z,6.20
2019-02-15T04:40:05.329Z,7.30
2019-02-15T04:42:33.543Z,6.62
2019-02-15T04:45:01.815Z,6.28
2019-02-15T04:47:30.416Z,6.87
2019-02-15T04:49:58.638Z,6.60
2019-02-15T04:52:26.874Z,7.28
2019-02-15T04:54:55.102Z,7.03
2019-02-15T04:57:23.316Z,6.83
2019-02-15T04:59:51.561Z,6.67
2019-02-15T05:02:19.777Z,6.65
2019-02-15T05:04:48.007Z,6.87
2019-02-15T05:07:16.225Z,6.65
2019-02-15T05:09:44.471Z,6.78
2019-02-15T05:12:12.694Z,6.50
2019-02-15T05:14:40.918Z,6.53
2019-02-15T05:17:09.207Z,6.45
2019-02-15T05:19:37.440Z,6.25
2019-02-15T05:22:05.680Z,6.10
2019-02-15T05:24:33.971Z,6.55
2019-02-15T05:27:02.185Z,6.42
2019-02-15T05:29:30.734Z,6.45
2019-02-15T05:31:59.008Z,6.53
2019-02-15T05:34:27.273Z,6.25
2019-02-15T05:36:55.574Z,6.62
2019-02-15T05:39:23.817Z,5.92
2019-02-15T05:41:52.371Z,5.83
2019-02-15T05:44:20.863Z,6.17
2019-02-15T05:46:49.072Z,6.35
2019-02-15T05:49:17.553Z,6.03
2019-02-15T05:51:47.577Z,6.05
2019-02-15T05:54:16.300Z,7.03
2019-02-15T05:56:44.529Z,6.15
2019-02-15T05:59:12.766Z,6.10
2019-02-15T06:01:41.007Z,5.87
2019-02-15T06:04:09.301Z,5.67
2019-02-15T06:06:37.528Z,6.05
2019-02-15T06:09:06.226Z,5.95
2019-02-15T06:11:34.456Z,6.80
2019-02-15T06:14:02.704Z,6.72
2019-02-15T06:16:31.289Z,6.33
2019-02-15T06:18:59.508Z,6.37
2019-02-15T06:21:27.735Z,7.75
2019-02-15T06:23:55.965Z,6.40
2019-02-15T06:26:24.226Z,7.30
2019-02-15T06:28:52.441Z,6.87
2019-02-15T06:31:21.017Z,7.37
2019-02-15T06:33:49.264Z,6.67
2019-02-15T06:36:17.540Z,11.90
2019-02-15T06:38:45.761Z,18.65
2019-02-15T06:41:14.282Z,7.92
2019-02-15T06:43:42.509Z,6.83
2019-02-15T06:46:10.748Z,7.05
2019-02-15T06:48:38.969Z,7.40
2019-02-15T06:51:07.207Z,6.70
2019-02-15T06:53:35.437Z,7.40
2019-02-15T06:56:03.675Z,6.50
2019-02-15T06:58:31.957Z,6.60
2019-02-15T07:01:04.648Z,7.20
2019-02-15T07:03:34.503Z,7.87
2019-02-15T07:06:02.732Z,6.42
2019-02-15T07:08:30.960Z,7.08
2019-02-15T07:10:59.480Z,6.78
2019-02-15T07:13:27.697Z,7.00
2019-02-15T07:15:55.921Z,7.58
2019-02-15T07:18:24.376Z,7.95
2019-02-15T07:20:52.617Z,7.20
2019-02-15T07:23:20.824Z,7.85
2019-02-15T07:25:49.052Z,6.97
2019-02-15T07:28:17.263Z,6.70
2019-02-15T07:30:45.793Z,7.37
2019-02-15T07:33:14.020Z,7.70
2019-02-15T07:35:42.248Z,7.00
2019-02-15T07:38:10.788Z,6.92
2019-02-15T07:40:39.017Z,7.83
2019-02-15T07:43:07.240Z,7.30
2019-02-15T07:45:42.642Z,7.30
2019-02-15T07:48:05.409Z,7.80
2019-02-15T07:50:33.660Z,6.72
2019-02-15T07:53:01.877Z,7.60
2019-02-15T07:55:30.250Z,8.15
2019-02-15T07:57:58.469Z,7.35
2019-02-15T08:00:27.019Z,7.08
2019-02-15T08:02:55.499Z,7.12
2019-02-15T08:05:23.775Z,8.25
2019-02-15T08:07:52.394Z,7.95
2019-02-15T08:10:21.084Z,7.30
2019-02-15T08:12:49.308Z,7.87
2019-02-15T08:15:17.523Z,7.15
2019-02-15T08:17:46.060Z,7.08
2019-02-15T08:20:14.279Z,7.20
2019-02-15T08:22:42.508Z,7.97
2019-02-15T08:25:10.748Z,8.10
2019-02-15T08:27:38.998Z,8.00
2019-02-15T08:30:09.857Z,8.58
2019-02-15T08:32:38.082Z,9.50
2019-02-15T08:35:09.401Z,9.00
2019-02-15T08:37:37.645Z,8.53
2019-02-15T08:40:08.504Z,8.85
2019-02-15T08:42:36.742Z,8.83
2019-02-15T08:45:08.441Z,9.58
2019-02-15T08:47:36.680Z,8.85
2019-02-15T08:50:07.537Z,8.90
2019-02-15T08:52:35.784Z,9.38
2019-02-15T08:55:05.655Z,8.63
2019-02-15T08:57:33.876Z,8.58
2019-02-15T09:00:02.173Z,8.58
2019-02-15T09:02:30.408Z,8.90
2019-02-15T09:04:58.624Z,8.55
2019-02-15T09:07:26.860Z,9.15
2019-02-15T09:09:55.084Z,8.93
2019-02-15T09:12:23.337Z,8.63
2019-02-15T09:14:51.552Z,8.60
2019-02-15T09:17:20.044Z,8.35
2019-02-15T09:19:48.283Z,9.23
2019-02-15T09:22:16.511Z,8.83
2019-02-15T09:24:44.728Z,8.63
2019-02-15T09:27:14.597Z,8.60
2019-02-15T09:29:42.817Z,8.38
2019-02-15T09:32:11.049Z,8.65
2019-02-15T09:34:39.287Z,8.63
2019-02-15T09:37:07.516Z,8.65
2019-02-15T09:39:35.743Z,8.53
2019-02-15T09:42:04.832Z,8.30
2019-02-15T09:44:33.064Z,8.75
2019-02-15T09:47:01.311Z,8.48
2019-02-15T09:49:29.528Z,8.40
2019-02-15T09:51:57.792Z,8.70
2019-02-15T09:54:26.024Z,8.53
2019-02-15T09:56:54.292Z,8.43
2019-02-15T09:59:22.556Z,8.70
2019-02-15T10:01:50.788Z,9.08
2019-02-15T10:04:19.012Z,9.15
2019-02-15T10:06:47.232Z,9.48
2019-02-15T10:09:15.469Z,8.90
2019-02-15T10:11:44.049Z,9.60
2019-02-15T10:14:12.268Z,9.40
2019-02-15T10:16:40.513Z,9.75
2019-02-15T10:19:08.736Z,9.95
2019-02-15T10:21:36.967Z,8.63
2019-02-15T10:24:05.212Z,9.03
2019-02-15T10:26:33.432Z,8.63
2019-02-15T10:29:01.648Z,8.50
2019-02-15T10:31:29.889Z,9.75
2019-02-15T10:33:58.104Z,9.48
2019-02-15T10:36:26.582Z,8.90
2019-02-15T10:38:54.829Z,10.05
2019-02-15T10:41:23.048Z,9.40
2019-02-15T10:43:51.263Z,9.75
2019-02-15T10:46:19.500Z,9.38
2019-02-15T10:48:47.728Z,9.20
2019-02-15T10:51:15.961Z,8.45
2019-02-15T10:53:44.192Z,8.28
2019-02-15T10:56:12.422Z,9.25
2019-02-15T10:58:40.655Z,10.03
2019-02-15T11:01:08.886Z,10.93
2019-02-15T11:03:37.111Z,8.45
2019-02-15T11:06:05.349Z,9.63
2019-02-15T11:08:33.571Z,9.38
2019-02-15T11:11:01.886Z,8.85
2019-02-15T11:13:31.765Z,9.45
2019-02-15T11:15:59.993Z,8.08
2019-02-15T11:18:28.236Z,8.20
2019-02-15T11:20:56.482Z,8.65
2019-02-15T11:23:24.697Z,8.28
2019-02-15T11:25:52.940Z,7.10
2019-02-15T11:28:21.168Z,6.60
2019-02-15T11:30:49.400Z,7.20
2019-02-15T11:33:17.629Z,7.35
2019-02-15T11:35:45.874Z,7.40
2019-02-15T11:38:14.095Z,7.20
2019-02-15T11:40:42.325Z,6.30
2019-02-15T11:43:10.552Z,6.10
2019-02-15T11:45:38.776Z,6.90
2019-02-15T11:48:07.010Z,6.87
2019-02-15T11:50:35.244Z,6.85
2019-02-15T11:53:03.816Z,7.00
2019-02-15T11:55:32.031Z,7.08
2019-02-15T11:58:00.264Z,5.70
2019-02-15T12:00:30.127Z,8.03
2019-02-15T12:02:58.362Z,5.87
2019-02-15T12:05:26.588Z,7.00
2019-02-15T12:07:54.819Z,6.30
2019-02-15T12:10:23.044Z,6.60
2019-02-15T12:12:51.288Z,6.72
2019-02-15T12:15:19.500Z,6.47
2019-02-15T12:17:47.740Z,6.90
2019-02-15T12:20:15.962Z,6.85
2019-02-15T12:22:44.197Z,6.17
2019-02-15T12:25:12.416Z,5.00
2019-02-15T12:27:40.700Z,4.95
2019-02-15T12:30:11.427Z,6.55
2019-02-15T12:32:39.659Z,6.00
2019-02-15T12:35:09.263Z,4.85
2019-02-15T12:37:37.512Z,4.62
2019-02-15T12:40:07.568Z,5.35
2019-02-15T12:42:35.916Z,5.15
2019-02-15T12:45:06.176Z,5.28
2019-02-15T12:47:34.412Z,4.00
2019-02-15T12:50:02.685Z,3.65
2019-02-15T12:52:30.977Z,4.67
2019-02-15T12:54:59.191Z,3.92
2019-02-15T12:57:27.448Z,3.98
2019-02-15T12:59:55.668Z,3.33
2019-02-15T13:02:23.900Z,3.08
2019-02-15T13:04:52.119Z,2.70
2019-02-15T13:07:20.376Z,2.75
2019-02-15T13:09:48.592Z,2.70
2019-02-15T13:12:16.849Z,2.62
2019-02-15T13:14:45.063Z,2.30
2019-02-15T13:17:13.300Z,2.33
2019-02-15T13:19:41.829Z,2.00
2019-02-15T13:22:10.052Z,1.90
2019-02-15T13:24:38.292Z,1.90
2019-02-15T13:27:06.775Z,1.70
2019-02-15T13:29:35.012Z,1.72
2019-02-15T13:32:03.290Z,2.20
2019-02-15T13:34:31.844Z,2.00
2019-02-15T13:37:00.067Z,2.22
2019-02-15T13:39:28.300Z,2.20
2019-02-15T13:41:56.520Z,2.40
2019-02-15T13:44:24.757Z,2.10
2019-02-15T13:46:52.994Z,1.90
2019-02-15T13:49:21.589Z,2.33
2019-02-15T13:51:49.812Z,2.22
2019-02-15T13:54:18.085Z,2.10
2019-02-15T13:56:46.557Z,1.80
2019-02-15T13:59:14.807Z,1.70
2019-02-15T14:01:43.035Z,1.82
2019-02-15T14:04:11.272Z,0.98
2019-02-15T14:06:39.814Z,1.10
2019-02-15T14:09:08.061Z,1.12
2019-02-15T14:11:36.292Z,1.00
2019-02-15T14:14:04.552Z,0.90
2019-02-15T14:16:32.964Z,1.25
2019-02-15T14:19:01.485Z,1.05
2019-02-15T14:21:29.751Z,1.20
2019-02-15T14:23:58.038Z,1.00
2019-02-15T14:26:26.256Z,1.10
2019-02-15T14:28:54.824Z,1.05
2019-02-15T14:31:23.035Z,1.25
2019-02-15T14:33:51.287Z,1.05
2019-02-15T14:36:38.937Z,1.10
2019-02-15T14:39:08.821Z,1.05
2019-02-15T14:41:37.044Z,1.00
2019-02-15T14:44:05.305Z,1.10
2019-02-15T14:46:33.852Z,1.20
2019-02-15T14:49:02.080Z,1.15
2019-02-15T14:51:30.300Z,1.00
2019-02-15T14:53:58.545Z,1.12
2019-02-15T14:56:27.106Z,1.20
2019-02-15T14:58:57.436Z,1.02
2019-02-15T15:01:25.685Z,1.30
2019-02-15T15:03:53.924Z,1.15
2019-02-15T15:06:22.219Z,1.10
2019-02-15T15:08:50.457Z,1.12
2019-02-15T15:11:21.092Z,1.30
2019-02-15T15:13:49.321Z,1.20
2019-02-15T15:16:17.828Z,1.50
2019-02-15T15:18:46.068Z,1.20
2019-02-15T15:21:14.689Z,1.50
2019-02-15T15:23:42.930Z,1.45
2019-02-15T15:26:13.215Z,1.30
2019-02-15T15:28:41.716Z,1.45
2019-02-15T15:31:11.346Z,1.40
2019-02-15T15:33:42.250Z,1.22
2019-02-15T15:36:10.540Z,1.50
2019-02-15T15:38:39.091Z,1.87
2019-02-15T15:41:08.638Z,1.50
2019-02-15T15:43:37.100Z,1.60
2019-02-15T15:46:05.318Z,1.50
2019-02-15T15:48:33.560Z,1.52
2019-02-15T15:51:01.821Z,1.45
2019-02-15T15:53:30.048Z,1.80
2019-02-15T15:55:58.285Z,1.72
2019-02-15T15:58:26.512Z,1.80
2019-02-15T16:00:54.752Z,1.55
2019-02-15T16:03:23.302Z,1.80
2019-02-15T16:05:51.536Z,1.90
2019-02-15T16:08:19.757Z,2.10
2019-02-15T16:10:48.264Z,2.20
2019-02-15T16:13:16.517Z,3.35
2019-02-15T16:15:44.807Z,3.20
2019-02-15T16:18:13.048Z,1.98
2019-02-15T16:20:41.288Z,1.98
2019-02-15T16:23:09.518Z,1.95
2019-02-15T16:25:37.751Z,2.50
2019-02-15T16:28:06.002Z,2.10
2019-02-15T16:30:34.308Z,2.95
2019-02-15T16:33:02.534Z,2.80
2019-02-15T16:35:31.340Z,2.00
2019-02-15T16:37:59.865Z,3.15
2019-02-15T16:40:28.131Z,2.12
2019-02-15T16:42:56.356Z,3.50
2019-02-15T16:45:24.617Z,2.75
2019-02-15T16:47:52.835Z,2.60
2019-02-15T16:50:21.139Z,2.52
2019-02-15T16:52:49.372Z,3.20
2019-02-15T16:55:17.622Z,2.60
2019-02-15T16:57:45.887Z,2.60
2019-02-15T17:00:14.922Z,2.40
2019-02-15T17:02:43.136Z,2.35
2019-02-15T17:05:11.548Z,2.37
2019-02-15T17:07:39.905Z,2.58
2019-02-15T17:10:09.641Z,2.83
2019-02-15T17:12:37.872Z,2.60
2019-02-15T17:15:13.920Z,2.77
2019-02-15T17:17:42.148Z,2.55
2019-02-15T17:20:10.551Z,2.50
2019-02-15T17:22:38.776Z,2.67
2019-02-15T17:25:09.272Z,2.40
2019-02-15T17:27:37.834Z,2.40
2019-02-15T17:30:08.919Z,3.33
2019-02-15T17:35:06.877Z,3.55
2019-02-15T17:37:35.112Z,3.12
2019-02-15T17:40:04.924Z,3.50
2019-02-15T17:42:33.503Z,2.60
2019-02-15T17:45:01.755Z,3.20
2019-02-15T17:47:29.989Z,2.92
2019-02-15T17:49:58.214Z,3.00
2019-02-15T17:52:26.760Z,3.08
2019-02-15T17:54:55.005Z,2.83
2019-02-15T17:57:23.248Z,3.15
2019-02-15T17:59:51.468Z,2.80
2019-02-15T18:02:19.709Z,2.80
2019-02-15T18:04:48.038Z,3.40
2019-02-15T18:07:16.467Z,3.50
2019-02-15T18:09:44.987Z,3.10
2019-02-15T18:12:13.228Z,2.95
2019-02-15T18:14:41.460Z,3.75
2019-02-15T18:17:09.974Z,3.47
2019-02-15T18:19:46.903Z,3.98
2019-02-15T18:22:08.260Z,3.60
2019-02-15T18:24:36.499Z,4.22
2019-02-15T18:27:05.059Z,4.00
2019-02-15T18:29:33.766Z,4.00
2019-02-15T18:32:02.004Z,4.00
2019-02-15T18:34:30.265Z,3.35
2019-02-15T18:36:58.495Z,3.98
2019-02-15T18:39:27.043Z,3.67
2019-02-15T18:41:55.590Z,3.90
2019-02-15T18:44:23.812Z,3.95
2019-02-15T18:46:52.051Z,4.10
2019-02-15T18:49:23.578Z,3.70
2019-02-15T18:51:52.012Z,3.75
2019-02-15T18:54:20.545Z,4.10
2019-02-15T18:56:48.788Z,3.87
2019-02-15T18:59:17.019Z,4.25
2019-02-15T19:01:45.303Z,4.60
2019-02-15T19:04:13.606Z,4.92
2019-02-15T19:06:41.872Z,4.37
2019-02-15T19:09:10.381Z,4.72
2019-02-15T19:11:38.620Z,4.90
2019-02-15T19:14:06.921Z,4.45
2019-02-15T19:16:35.176Z,4.50
2019-02-15T19:19:03.769Z,4.50
2019-02-15T19:21:32.353Z,5.08
2019-02-15T19:24:00.568Z,4.58
2019-02-15T19:26:28.806Z,5.60
2019-02-15T19:28:57.040Z,5.58
2019-02-15T19:31:25.280Z,5.85
2019-02-15T19:33:54.256Z,5.53
2019-02-15T19:36:22.792Z,6.05
2019-02-15T19:38:51.016Z,6.00
2019-02-15T19:41:19.912Z,5.78
2019-02-15T19:43:48.156Z,6.00
2019-02-15T19:46:16.402Z,5.62
2019-02-15T19:48:48.469Z,5.50
2019-02-15T19:51:16.714Z,6.72
2019-02-15T19:53:44.939Z,5.08
2019-02-15T19:56:13.512Z,5.12
2019-02-15T19:58:43.777Z,4.75
2019-02-15T20:01:31.696Z,5.60
2019-02-15T20:03:59.915Z,4.95
2019-02-15T20:06:28.160Z,4.97
2019-02-15T20:08:56.675Z,5.15
2019-02-15T20:11:24.914Z,4.80
2019-02-15T20:13:53.463Z,5.40
2019-02-15T20:16:21.692Z,4.85
2019-02-15T20:18:49.927Z,4.95
2019-02-15T20:21:18.133Z,4.72
2019-02-15T20:23:46.386Z,5.00
2019-02-15T20:26:14.669Z,5.47
2019-02-15T20:28:42.914Z,5.30
2019-02-15T20:31:11.149Z,5.62
2019-02-15T20:33:39.677Z,5.25
2019-02-15T20:36:07.901Z,5.08
2019-02-15T20:38:36.140Z,5.75
2019-02-15T20:41:04.476Z,5.17
2019-02-15T20:43:33.035Z,5.30
2019-02-15T20:46:02.245Z,5.85
2019-02-15T20:48:30.749Z,6.90
2019-02-15T20:50:59.245Z,5.97
2019-02-15T20:53:27.739Z,6.20
2019-02-15T20:55:55.972Z,5.10
2019-02-15T20:58:24.284Z,5.50
2019-02-15T21:00:52.536Z,5.28
2019-02-15T21:03:20.899Z,5.25
2019-02-15T21:05:49.116Z,4.80
2019-02-15T21:08:17.362Z,5.37
2019-02-15T21:10:54.238Z,5.00
2019-02-15T21:13:20.505Z,5.03
2019-02-15T21:15:45.796Z,5.12
2019-02-15T21:18:14.041Z,5.00
2019-02-15T21:20:42.264Z,6.22
2019-02-15T21:23:10.546Z,6.10
2019-02-15T21:25:38.749Z,5.20
2019-02-15T21:28:06.992Z,5.28
2019-02-15T21:30:35.204Z,5.67
2019-02-15T21:33:03.797Z,5.45
2019-02-15T21:35:32.361Z,4.53
2019-02-15T21:38:00.600Z,5.47
2019-02-15T21:40:29.676Z,5.12
2019-02-15T21:42:57.979Z,5.62
2019-02-15T21:45:26.207Z,5.72
2019-02-15T21:47:54.465Z,5.50
2019-02-15T21:50:22.679Z,5.65
2019-02-15T21:52:51.229Z,5.40
2019-02-15T21:55:19.713Z,5.75
2019-02-15T21:57:48.095Z,6.40
2019-02-15T22:00:19.131Z,6.17
2019-02-15T22:02:47.669Z,6.10
2019-02-15T22:05:16.160Z,5.78
2019-02-15T22:07:44.924Z,5.92
2019-02-15T22:10:13.199Z,6.03
2019-02-15T22:12:41.428Z,6.33
2019-02-15T22:15:12.272Z,6.28
2019-02-15T22:17:40.522Z,6.42
2019-02-15T22:20:13.403Z,6.28
2019-02-15T22:22:41.973Z,6.92
2019-02-15T22:25:10.184Z,7.30
2019-02-15T22:27:38.434Z,6.92
2019-02-15T22:30:12.324Z,7.22
2019-02-15T22:32:42.477Z,7.17
2019-02-15T22:35:10.515Z,7.10
2019-02-15T22:37:38.730Z,6.42
2019-02-15T22:40:24.616Z,6.87
2019-02-15T22:42:52.845Z,6.30
2019-02-15T22:45:21.060Z,7.35
2019-02-15T22:47:49.320Z,6.72
2019-02-15T22:50:17.543Z,6.87
2019-02-15T22:52:45.775Z,6.17
2019-02-15T22:55:13.988Z,6.83
2019-02-15T22:57:42.424Z,7.10
2019-02-15T23:00:33.188Z,6.53
2019-02-15T23:03:01.552Z,6.92
2019-02-15T23:05:29.749Z,6.50
2019-02-15T23:07:57.978Z,7.30
2019-02-15T23:10:26.191Z,6.33
2019-02-15T23:12:54.423Z,6.70
2019-02-15T23:15:22.637Z,5.95
2019-02-15T23:17:50.869Z,6.80
2019-02-15T23:20:19.096Z,6.78
2019-02-15T23:22:47.322Z,6.15
2019-02-15T23:25:15.548Z,7.20
2019-02-15T23:27:43.782Z,7.12
2019-02-15T23:30:11.995Z,7.42
2019-02-15T23:32:40.236Z,6.78
2019-02-15T23:35:08.473Z,6.60
2019-02-15T23:37:36.694Z,6.10
2019-02-15T23:40:05.693Z,6.45
2019-02-15T23:42:34.224Z,6.35
2019-02-15T23:45:02.452Z,6.75
2019-02-15T23:47:30.676Z,7.12
2019-02-15T23:49:58.920Z,6.33
2019-02-15T23:52:27.136Z,6.53
2019-02-15T23:54:55.363Z,6.45
2019-02-15T23:57:23.860Z,6.65
2019-02-15T23:59:52.092Z,6.53
